sensor_id;sensor_type;location;lat;lon;timestamp;pressure;altitude;pressure_sealevel;temperature;humidity
54666;BME280;40566;50.006;36.180;2023-02-13T00:00:38;100497.41;;;-5.05;61.98
54666;BME280;40566;50.006;36.180;2023-02-13T00:05:38;100497.25;;;-5.08;62.06
54666;BME280;40566;50.006;36.180;2023-02-13T00:10:39;100499.56;;;-5.13;62.37
54666;BME280;40566;50.006;36.180;2023-02-13T00:15:40;100507.13;;;-5.13;62.19
54666;BME280;40566;50.006;36.180;2023-02-13T00:20:40;100506.19;;;-5.15;62.10
54666;BME280;40566;50.006;36.180;2023-02-13T00:25:41;100502.50;;;-5.22;62.52
54666;BME280;40566;50.006;36.180;2023-02-13T00:30:41;100513.59;;;-5.18;62.32
54666;BME280;40566;50.006;36.180;2023-02-13T00:35:42;100517.78;;;-5.19;62.20
54666;BME280;40566;50.006;36.180;2023-02-13T00:40:42;100515.75;;;-5.26;62.48
54666;BME280;40566;50.006;36.180;2023-02-13T00:45:43;100513.41;;;-5.23;62.28
54666;BME280;40566;50.006;36.180;2023-02-13T00:50:45;100516.69;;;-5.24;62.39
54666;BME280;40566;50.006;36.180;2023-02-13T00:55:46;100511.53;;;-5.27;62.47
54666;BME280;40566;50.006;36.180;2023-02-13T01:00:47;100515.75;;;-5.26;62.37
54666;BME280;40566;50.006;36.180;2023-02-13T01:05:48;100518.19;;;-5.27;62.24
54666;BME280;40566;50.006;36.180;2023-02-13T01:10:49;100523.09;;;-5.30;62.40
54666;BME280;40566;50.006;36.180;2023-02-13T01:15:50;100523.09;;;-5.30;62.29
54666;BME280;40566;50.006;36.180;2023-02-13T01:21:00;100518.78;;;-5.33;62.19
54666;BME280;40566;50.006;36.180;2023-02-13T01:26:05;100516.03;;;-5.38;62.37
54666;BME280;40566;50.006;36.180;2023-02-13T01:31:06;100524.47;;;-5.37;62.53
54666;BME280;40566;50.006;36.180;2023-02-13T01:36:08;100525.91;;;-5.42;62.52
54666;BME280;40566;50.006;36.180;2023-02-13T01:41:10;100533.28;;;-5.45;62.31
54666;BME280;40566;50.006;36.180;2023-02-13T01:46:12;100538.34;;;-5.45;62.27
54666;BME280;40566;50.006;36.180;2023-02-13T01:51:27;100542.59;;;-5.44;62.19
54666;BME280;40566;50.006;36.180;2023-02-13T01:56:34;100554.25;;;-5.46;62.16
54666;BME280;40566;50.006;36.180;2023-02-13T02:01:36;100555.00;;;-5.49;62.18
54666;BME280;40566;50.006;36.180;2023-02-13T02:06:47;100563.09;;;-5.54;62.16
54666;BME280;40566;50.006;36.180;2023-02-13T02:17:08;100561.28;;;-5.57;62.35
54666;BME280;40566;50.006;36.180;2023-02-13T02:27:38;100555.72;;;-5.68;62.36
54666;BME280;40566;50.006;36.180;2023-02-13T02:32:50;100561.22;;;-5.75;62.33
54666;BME280;40566;50.006;36.180;2023-02-13T02:38:59;100559.34;;;-5.79;62.47
54666;BME280;40566;50.006;36.180;2023-02-13T02:43:54;100554.22;;;-5.81;62.60
54666;BME280;40566;50.006;36.180;2023-02-13T02:49:06;100567.44;;;-5.85;62.61
54666;BME280;40566;50.006;36.180;2023-02-13T02:54:51;100569.94;;;-5.85;62.53
54666;BME280;40566;50.006;36.180;2023-02-13T03:00:07;100561.41;;;-5.88;62.67
54666;BME280;40566;50.006;36.180;2023-02-13T03:05:28;100558.00;;;-5.89;62.72
54666;BME280;40566;50.006;36.180;2023-02-13T03:10:48;100557.84;;;-5.92;62.43
54666;BME280;40566;50.006;36.180;2023-02-13T03:16:26;100555.69;;;-6.02;62.74
54666;BME280;40566;50.006;36.180;2023-02-13T03:27:44;100557.09;;;-6.07;62.60
54666;BME280;40566;50.006;36.180;2023-02-13T03:38:27;100551.03;;;-6.11;62.91
54666;BME280;40566;50.006;36.180;2023-02-13T03:43:36;100561.09;;;-6.11;62.97
54666;BME280;40566;50.006;36.180;2023-02-13T03:48:40;100557.09;;;-6.07;63.06
54666;BME280;40566;50.006;36.180;2023-02-13T03:54:06;100559.38;;;-6.12;63.16
54666;BME280;40566;50.006;36.180;2023-02-13T03:59:21;100564.72;;;-6.06;62.79
54666;BME280;40566;50.006;36.180;2023-02-13T04:09:43;100568.19;;;-6.04;62.88
54666;BME280;40566;50.006;36.180;2023-02-13T04:14:54;100573.13;;;-6.05;62.91
54666;BME280;40566;50.006;36.180;2023-02-13T04:19:57;100591.16;;;-5.97;63.08
54666;BME280;40566;50.006;36.180;2023-02-13T04:24:58;100581.09;;;-5.97;63.29
54666;BME280;40566;50.006;36.180;2023-02-13T04:29:59;100597.66;;;-5.85;62.94
54666;BME280;40566;50.006;36.180;2023-02-13T04:34:59;100597.66;;;-5.85;63.21
54666;BME280;40566;50.006;36.180;2023-02-13T04:40:00;100611.16;;;-5.84;63.02
54666;BME280;40566;50.006;36.180;2023-02-13T04:45:01;100616.19;;;-5.84;63.18
54666;BME280;40566;50.006;36.180;2023-02-13T04:50:01;100621.22;;;-5.84;63.34
54666;BME280;40566;50.006;36.180;2023-02-13T04:55:02;100623.53;;;-5.72;62.95
54666;BME280;40566;50.006;36.180;2023-02-13T05:00:05;100616.91;;;-5.70;62.95
54666;BME280;40566;50.006;36.180;2023-02-13T05:05:05;100616.81;;;-5.72;63.17
54666;BME280;40566;50.006;36.180;2023-02-13T05:10:07;100607.81;;;-5.67;63.20
54666;BME280;40566;50.006;36.180;2023-02-13T05:15:08;100624.22;;;-5.59;63.21
54666;BME280;40566;50.006;36.180;2023-02-13T05:20:09;100602.16;;;-5.46;63.01
54666;BME280;40566;50.006;36.180;2023-02-13T05:25:09;100616.41;;;-5.30;62.65
54666;BME280;40566;50.006;36.180;2023-02-13T05:30:11;100606.81;;;-5.20;62.64
54666;BME280;40566;50.006;36.180;2023-02-13T05:35:11;100612.81;;;-5.18;62.52
54666;BME280;40566;50.006;36.180;2023-02-13T05:40:13;100604.47;;;-5.16;62.77
54666;BME280;40566;50.006;36.180;2023-02-13T05:45:14;100609.38;;;-5.02;62.61
54666;BME280;40566;50.006;36.180;2023-02-13T05:50:15;100622.88;;;-5.01;62.73
54666;BME280;40566;50.006;36.180;2023-02-13T05:55:16;100620.66;;;-4.95;62.96
54666;BME280;40566;50.006;36.180;2023-02-13T06:00:17;100607.47;;;-4.89;62.62
54666;BME280;40566;50.006;36.180;2023-02-13T06:05:17;100614.03;;;-4.75;62.71
54666;BME280;40566;50.006;36.180;2023-02-13T06:10:18;100607.03;;;-4.63;62.41
54666;BME280;40566;50.006;36.180;2023-02-13T06:15:19;100608.25;;;-4.36;62.15
54666;BME280;40566;50.006;36.180;2023-02-13T06:20:19;100609.81;;;-4.21;61.60
54666;BME280;40566;50.006;36.180;2023-02-13T06:25:20;100599.28;;;-4.12;61.66
54666;BME280;40566;50.006;36.180;2023-02-13T06:30:21;100595.78;;;-3.96;61.71
54666;BME280;40566;50.006;36.180;2023-02-13T06:35:22;100595.78;;;-3.76;61.50
54666;BME280;40566;50.006;36.180;2023-02-13T06:40:22;100587.22;;;-3.61;61.25
54666;BME280;40566;50.006;36.180;2023-02-13T06:45:23;100581.38;;;-3.39;61.04
54666;BME280;40566;50.006;36.180;2023-02-13T06:50:23;100577.78;;;-3.44;61.09
54666;BME280;40566;50.006;36.180;2023-02-13T06:55:24;100589.59;;;-3.44;61.34
54666;BME280;40566;50.006;36.180;2023-02-13T07:00:24;100588.56;;;-3.28;60.99
54666;BME280;40566;50.006;36.180;2023-02-13T07:05:26;100584.09;;;-3.34;61.14
54666;BME280;40566;50.006;36.180;2023-02-13T07:10:26;100591.84;;;-3.31;61.13
54666;BME280;40566;50.006;36.180;2023-02-13T07:15:29;100585.59;;;-3.39;61.46
54666;BME280;40566;50.006;36.180;2023-02-13T07:20:29;100586.41;;;-3.19;61.41
54666;BME280;40566;50.006;36.180;2023-02-13T07:25:30;100587.00;;;-2.84;60.50
54666;BME280;40566;50.006;36.180;2023-02-13T07:30:32;100585.00;;;-2.70;60.39
54666;BME280;40566;50.006;36.180;2023-02-13T07:35:33;100570.84;;;-2.65;60.31
54666;BME280;40566;50.006;36.180;2023-02-13T07:40:35;100583.72;;;-2.82;61.16
54666;BME280;40566;50.006;36.180;2023-02-13T07:45:36;100572.69;;;-2.61;60.93
54666;BME280;40566;50.006;36.180;2023-02-13T07:50:36;100580.34;;;-2.37;60.40
54666;BME280;40566;50.006;36.180;2023-02-13T07:55:37;100582.63;;;-1.98;60.18
54666;BME280;40566;50.006;36.180;2023-02-13T08:00:38;100582.47;;;-1.54;59.32
54666;BME280;40566;50.006;36.180;2023-02-13T08:05:39;100571.88;;;-1.44;59.15
54666;BME280;40566;50.006;36.180;2023-02-13T08:10:40;100564.53;;;-1.61;59.93
54666;BME280;40566;50.006;36.180;2023-02-13T08:15:59;100564.66;;;-1.32;59.50
54666;BME280;40566;50.006;36.180;2023-02-13T08:21:03;100547.31;;;-0.65;58.42
54666;BME280;40566;50.006;36.180;2023-02-13T08:26:04;100525.94;;;-0.43;57.80
54666;BME280;40566;50.006;36.180;2023-02-13T08:31:11;100511.03;;;-0.61;58.58
54666;BME280;40566;50.006;36.180;2023-02-13T08:36:12;100522.63;;;-0.12;58.19
54666;BME280;40566;50.006;36.180;2023-02-13T08:41:13;100505.22;;;0.04;57.74
54666;BME280;40566;50.006;36.180;2023-02-13T08:46:15;100503.19;;;-0.10;58.15
54666;BME280;40566;50.006;36.180;2023-02-13T08:51:16;100502.19;;;-0.15;58.45
54666;BME280;40566;50.006;36.180;2023-02-13T08:56:17;100499.25;;;-0.29;58.60
54666;BME280;40566;50.006;36.180;2023-02-13T09:01:17;100491.53;;;-0.32;58.95
54666;BME280;40566;50.006;36.180;2023-02-13T09:06:18;100492.75;;;-0.19;58.71
54666;BME280;40566;50.006;36.180;2023-02-13T09:11:19;100496.50;;;-0.05;58.24
54666;BME280;40566;50.006;36.180;2023-02-13T09:16:22;100480.63;;;0.03;57.98
54666;BME280;40566;50.006;36.180;2023-02-13T09:21:23;100475.31;;;0.27;57.62
54666;BME280;40566;50.006;36.180;2023-02-13T09:26:23;100469.16;;;0.18;57.83
54666;BME280;40566;50.006;36.180;2023-02-13T09:31:24;100478.09;;;0.36;57.90
54666;BME280;40566;50.006;36.180;2023-02-13T09:36:24;100474.84;;;0.43;57.65
54666;BME280;40566;50.006;36.180;2023-02-13T09:41:31;100468.72;;;0.35;57.99
54666;BME280;40566;50.006;36.180;2023-02-13T09:46:38;100461.72;;;0.59;57.71
54666;BME280;40566;50.006;36.180;2023-02-13T09:51:40;100443.19;;;1.05;56.81
54666;BME280;40566;50.006;36.180;2023-02-13T09:56:56;100438.72;;;0.93;57.28
54666;BME280;40566;50.006;36.180;2023-02-13T10:02:18;100426.88;;;0.95;57.29
54666;BME280;40566;50.006;36.180;2023-02-13T10:07:43;100424.44;;;0.63;57.84
54666;BME280;40566;50.006;36.180;2023-02-13T10:13:00;100419.38;;;0.28;58.78
54666;BME280;40566;50.006;36.180;2023-02-13T10:18:09;100409.09;;;-0.10;59.47
54666;BME280;40566;50.006;36.180;2023-02-13T10:23:19;100395.75;;;-0.01;58.96
54666;BME280;40566;50.006;36.180;2023-02-13T10:28:29;100383.53;;;-0.14;59.15
54666;BME280;40566;50.006;36.180;2023-02-13T10:33:38;100394.25;;;-0.26;59.34
54666;BME280;40566;50.006;36.180;2023-02-13T11:05:16;100355.22;;;-0.60;60.05
54666;BME280;40566;50.006;36.180;2023-02-13T11:10:21;100347.91;;;-0.49;59.97
54666;BME280;40566;50.006;36.180;2023-02-13T11:15:28;100329.75;;;-0.63;60.39
54666;BME280;40566;50.006;36.180;2023-02-13T11:20:38;100328.69;;;-0.70;60.49
54666;BME280;40566;50.006;36.180;2023-02-13T11:36:31;100285.84;;;-0.89;61.16
54666;BME280;40566;50.006;36.180;2023-02-13T11:41:41;100283.69;;;-0.75;61.00
54666;BME280;40566;50.006;36.180;2023-02-13T11:46:47;100274.72;;;-0.63;60.78
54666;BME280;40566;50.006;36.180;2023-02-13T11:51:51;100273.22;;;-0.54;60.46
54666;BME280;40566;50.006;36.180;2023-02-13T11:56:58;100255.50;;;-0.53;60.74
54666;BME280;40566;50.006;36.180;2023-02-13T12:02:13;100250.78;;;-0.71;61.14
54666;BME280;40566;50.006;36.180;2023-02-13T12:12:39;100219.75;;;-0.59;61.08
54666;BME280;40566;50.006;36.180;2023-02-13T12:17:44;100203.63;;;-0.61;61.21
54666;BME280;40566;50.006;36.180;2023-02-13T12:28:19;100204.13;;;-0.74;61.64
54666;BME280;40566;50.006;36.180;2023-02-13T13:05:58;100177.88;;;-0.02;61.58
54666;BME280;40566;50.006;36.180;2023-02-13T13:21:46;100132.19;;;0.44;61.02
54666;BME280;40566;50.006;36.180;2023-02-13T13:26:49;100124.41;;;0.37;61.49
54666;BME280;40566;50.006;36.180;2023-02-13T13:31:57;100122.88;;;0.44;61.37
54666;BME280;40566;50.006;36.180;2023-02-13T13:42:13;100124.63;;;0.48;61.66
54666;BME280;40566;50.006;36.180;2023-02-13T13:47:47;100118.50;;;0.38;62.10
54666;BME280;40566;50.006;36.180;2023-02-13T13:53:15;100125.34;;;0.41;62.03
54666;BME280;40566;50.006;36.180;2023-02-13T13:58:36;100113.38;;;0.37;62.29
54666;BME280;40566;50.006;36.180;2023-02-13T14:03:37;100110.81;;;0.35;62.26
54666;BME280;40566;50.006;36.180;2023-02-13T14:13:44;100093.63;;;0.24;62.56
54666;BME280;40566;50.006;36.180;2023-02-13T14:18:46;100101.91;;;0.13;62.83
54666;BME280;40566;50.006;36.180;2023-02-13T14:23:49;100114.66;;;0.15;62.79
54666;BME280;40566;50.006;36.180;2023-02-13T14:49:32;100059.03;;;-0.11;63.31
54666;BME280;40566;50.006;36.180;2023-02-13T14:54:41;100073.91;;;-0.28;63.65
54666;BME280;40566;50.006;36.180;2023-02-13T14:59:46;100050.38;;;-0.21;63.65
54666;BME280;40566;50.006;36.180;2023-02-13T15:04:58;100058.88;;;-0.18;63.54
54666;BME280;40566;50.006;36.180;2023-02-13T15:10:05;100064.00;;;-0.17;63.52
54666;BME280;40566;50.006;36.180;2023-02-13T15:15:26;100055.59;;;-0.13;63.39
54666;BME280;40566;50.006;36.180;2023-02-13T15:20:29;100035.22;;;-0.14;63.43
54666;BME280;40566;50.006;36.180;2023-02-13T15:25:37;100048.06;;;-0.08;63.58
54666;BME280;40566;50.006;36.180;2023-02-13T15:30:38;100057.47;;;-0.06;63.63
54666;BME280;40566;50.006;36.180;2023-02-13T15:35:39;100057.41;;;-0.07;63.77
54666;BME280;40566;50.006;36.180;2023-02-13T15:40:40;100069.44;;;0.00;63.71
54666;BME280;40566;50.006;36.180;2023-02-13T15:45:43;100065.25;;;0.04;63.67
54666;BME280;40566;50.006;36.180;2023-02-13T15:50:44;100069.53;;;0.05;63.64
54666;BME280;40566;50.006;36.180;2023-02-13T15:56:01;100063.47;;;-0.01;63.68
54666;BME280;40566;50.006;36.180;2023-02-13T16:01:06;100062.72;;;0.04;63.94
54666;BME280;40566;50.006;36.180;2023-02-13T16:06:12;100059.38;;;0.06;63.83
54666;BME280;40566;50.006;36.180;2023-02-13T16:11:36;100060.31;;;0.11;63.80
54666;BME280;40566;50.006;36.180;2023-02-13T16:21:47;100058.91;;;0.27;63.82
54666;BME280;40566;50.006;36.180;2023-02-13T16:26:48;100048.63;;;0.21;63.94
54666;BME280;40566;50.006;36.180;2023-02-13T16:31:50;100031.59;;;0.17;64.18
54666;BME280;40566;50.006;36.180;2023-02-13T16:36:54;100023.16;;;0.18;64.30
54666;BME280;40566;50.006;36.180;2023-02-13T16:41:57;100024.94;;;0.22;64.27
54666;BME280;40566;50.006;36.180;2023-02-13T16:47:02;100028.47;;;0.30;64.36
54666;BME280;40566;50.006;36.180;2023-02-13T16:52:22;100018.22;;;0.27;64.47
54666;BME280;40566;50.006;36.180;2023-02-13T16:57:30;100006.38;;;0.29;64.46
54666;BME280;40566;50.006;36.180;2023-02-13T17:02:34;99994.44;;;0.25;64.63
54666;BME280;40566;50.006;36.180;2023-02-13T17:07:42;99994.50;;;0.28;64.68
54666;BME280;40566;50.006;36.180;2023-02-13T17:12:43;99979.19;;;0.25;64.71
54666;BME280;40566;50.006;36.180;2023-02-13T17:17:45;99979.25;;;0.28;64.89
54666;BME280;40566;50.006;36.180;2023-02-13T17:22:48;99966.44;;;0.24;64.93
54666;BME280;40566;50.006;36.180;2023-02-13T17:27:52;99953.72;;;0.24;65.15
54666;BME280;40566;50.006;36.180;2023-02-13T17:32:58;99948.66;;;0.25;65.10
54666;BME280;40566;50.006;36.180;2023-02-13T17:37:59;99954.47;;;0.19;65.39
54666;BME280;40566;50.006;36.180;2023-02-13T17:43:00;99940.03;;;0.17;65.63
54666;BME280;40566;50.006;36.180;2023-02-13T17:48:00;99944.31;;;0.19;65.64
54666;BME280;40566;50.006;36.180;2023-02-13T17:53:03;99923.16;;;0.21;65.56
54666;BME280;40566;50.006;36.180;2023-02-13T17:58:04;99921.44;;;0.21;65.74
54666;BME280;40566;50.006;36.180;2023-02-13T18:03:05;99904.38;;;0.12;66.15
54666;BME280;40566;50.006;36.180;2023-02-13T18:08:07;99905.28;;;0.16;66.16
54666;BME280;40566;50.006;36.180;2023-02-13T18:13:08;99921.41;;;0.18;66.16
54666;BME280;40566;50.006;36.180;2023-02-13T18:18:10;99927.34;;;0.18;66.25
54666;BME280;40566;50.006;36.180;2023-02-13T18:23:11;99916.38;;;0.21;66.35
54666;BME280;40566;50.006;36.180;2023-02-13T18:28:13;99918.06;;;0.21;66.30
54666;BME280;40566;50.006;36.180;2023-02-13T18:33:13;99900.28;;;0.24;66.45
54666;BME280;40566;50.006;36.180;2023-02-13T18:38:14;99890.16;;;0.25;66.67
54666;BME280;40566;50.006;36.180;2023-02-13T18:43:15;99874.91;;;0.27;66.81
54666;BME280;40566;50.006;36.180;2023-02-13T18:48:17;99855.38;;;0.26;66.89
54666;BME280;40566;50.006;36.180;2023-02-13T18:53:17;99859.59;;;0.24;67.13
54666;BME280;40566;50.006;36.180;2023-02-13T18:58:18;99861.25;;;0.20;67.37
54666;BME280;40566;50.006;36.180;2023-02-13T19:03:18;99848.56;;;0.23;67.44
54666;BME280;40566;50.006;36.180;2023-02-13T19:08:19;99840.06;;;0.21;67.58
54666;BME280;40566;50.006;36.180;2023-02-13T19:13:19;99827.34;;;0.21;67.88
54666;BME280;40566;50.006;36.180;2023-02-13T19:18:21;99823.88;;;0.16;68.11
54666;BME280;40566;50.006;36.180;2023-02-13T19:23:24;99825.63;;;0.18;68.42
54666;BME280;40566;50.006;36.180;2023-02-13T19:28:24;99818.00;;;0.22;68.32
54666;BME280;40566;50.006;36.180;2023-02-13T19:33:25;99806.97;;;0.19;68.46
54666;BME280;40566;50.006;36.180;2023-02-13T19:38:26;99797.66;;;0.22;68.76
54666;BME280;40566;50.006;36.180;2023-02-13T19:43:27;99779.81;;;0.17;69.07
54666;BME280;40566;50.006;36.180;2023-02-13T19:48:27;99785.75;;;0.19;69.22
54666;BME280;40566;50.006;36.180;2023-02-13T19:53:28;99781.56;;;0.21;69.27
54666;BME280;40566;50.006;36.180;2023-02-13T19:58:30;99779.84;;;0.18;69.28
54666;BME280;40566;50.006;36.180;2023-02-13T20:03:30;99771.34;;;0.18;69.61
54666;BME280;40566;50.006;36.180;2023-02-13T20:08:31;99756.13;;;0.21;69.59
54666;BME280;40566;50.006;36.180;2023-02-13T20:13:33;99770.56;;;0.22;69.75
54666;BME280;40566;50.006;36.180;2023-02-13T20:18:34;99761.19;;;0.19;69.95
54666;BME280;40566;50.006;36.180;2023-02-13T20:23:35;99753.56;;;0.21;70.07
54666;BME280;40566;50.006;36.180;2023-02-13T20:28:37;99733.31;;;0.27;70.02
54666;BME280;40566;50.006;36.180;2023-02-13T20:33:38;99716.41;;;0.31;70.15
54666;BME280;40566;50.006;36.180;2023-02-13T20:38:40;99703.72;;;0.32;70.05
54666;BME280;40566;50.006;36.180;2023-02-13T20:43:41;99709.59;;;0.28;70.59
54666;BME280;40566;50.006;36.180;2023-02-13T20:48:43;99710.50;;;0.32;70.57
54666;BME280;40566;50.006;36.180;2023-02-13T20:53:45;99706.28;;;0.35;70.72
54666;BME280;40566;50.006;36.180;2023-02-13T20:58:47;99691.88;;;0.34;70.81
54666;BME280;40566;50.006;36.180;2023-02-13T21:03:49;99676.66;;;0.39;70.75
54666;BME280;40566;50.006;36.180;2023-02-13T21:08:53;99670.75;;;0.42;70.72
54666;BME280;40566;50.006;36.180;2023-02-13T21:13:57;99671.59;;;0.41;71.05
54666;BME280;40566;50.006;36.180;2023-02-13T21:19:00;99662.25;;;0.41;71.02
54666;BME280;40566;50.006;36.180;2023-02-13T21:24:05;99656.25;;;0.37;71.36
54666;BME280;40566;50.006;36.180;2023-02-13T21:29:06;99645.38;;;0.48;71.26
54666;BME280;40566;50.006;36.180;2023-02-13T21:34:09;99635.25;;;0.52;71.26
54666;BME280;40566;50.006;36.180;2023-02-13T21:39:11;99636.97;;;0.53;71.47
54666;BME280;40566;50.006;36.180;2023-02-13T21:44:13;99625.91;;;0.53;71.63
54666;BME280;40566;50.006;36.180;2023-02-13T21:49:16;99619.22;;;0.61;71.37
54666;BME280;40566;50.006;36.180;2023-02-13T21:54:16;99626.88;;;0.63;71.65
54666;BME280;40566;50.006;36.180;2023-02-13T21:59:17;99612.44;;;0.63;72.00
54666;BME280;40566;50.006;36.180;2023-02-13T22:04:18;99601.44;;;0.64;72.07
54666;BME280;40566;50.006;36.180;2023-02-13T22:09:20;99596.38;;;0.69;72.01
54666;BME280;40566;50.006;36.180;2023-02-13T22:14:21;99575.13;;;0.64;72.21
54666;BME280;40566;50.006;36.180;2023-02-13T22:19:21;99559.81;;;0.57;72.57
54666;BME280;40566;50.006;36.180;2023-02-13T22:24:22;99551.28;;;0.54;72.92
54666;BME280;40566;50.006;36.180;2023-02-13T22:29:23;99525.06;;;0.59;72.99
54666;BME280;40566;50.006;36.180;2023-02-13T22:34:25;99523.41;;;0.66;72.98
54666;BME280;40566;50.006;36.180;2023-02-13T22:39:25;99507.28;;;0.66;72.89
54666;BME280;40566;50.006;36.180;2023-02-13T22:44:26;99491.16;;;0.64;73.14
54666;BME280;40566;50.006;36.180;2023-02-13T22:49:26;99470.78;;;0.65;73.36
54666;BME280;40566;50.006;36.180;2023-02-13T22:54:27;99461.44;;;0.64;73.43
54666;BME280;40566;50.006;36.180;2023-02-13T22:59:28;99453.81;;;0.64;73.62
54666;BME280;40566;50.006;36.180;2023-02-13T23:04:28;99447.88;;;0.67;73.70
54666;BME280;40566;50.006;36.180;2023-02-13T23:09:30;99452.19;;;0.72;73.63
54666;BME280;40566;50.006;36.180;2023-02-13T23:14:31;99444.53;;;0.72;73.63
54666;BME280;40566;50.006;36.180;2023-02-13T23:19:32;99442.84;;;0.71;73.95
54666;BME280;40566;50.006;36.180;2023-02-13T23:24:33;99442.78;;;0.65;74.01
54666;BME280;40566;50.006;36.180;2023-02-13T23:29:34;99440.22;;;0.65;74.28
54666;BME280;40566;50.006;36.180;2023-02-13T23:34:35;99430.06;;;0.65;74.47
54666;BME280;40566;50.006;36.180;2023-02-13T23:39:35;99415.63;;;0.63;74.70
54666;BME280;40566;50.006;36.180;2023-02-13T23:44:36;99405.44;;;0.59;74.91
54666;BME280;40566;50.006;36.180;2023-02-13T23:49:37;99383.41;;;0.62;75.07
54666;BME280;40566;50.006;36.180;2023-02-13T23:54:37;99371.47;;;0.56;75.40
54666;BME280;40566;50.006;36.180;2023-02-13T23:59:38;99367.25;;;0.61;75.04
